createdAt,value
2022-10-10T00:01:13.226Z,100.00
2022-10-10T00:03:40.200Z,100.00
2022-10-10T00:06:07.760Z,100.00
2022-10-10T00:08:34.540Z,100.00
2022-10-10T00:11:01.286Z,100.00
2022-10-10T00:13:27.993Z,100.00
2022-10-10T00:15:54.717Z,100.00
2022-10-10T00:18:22.014Z,100.00
2022-10-10T00:20:51.319Z,100.00
2022-10-10T00:23:19.018Z,100.00
2022-10-10T00:25:46.271Z,100.00
2022-10-10T00:28:13.114Z,100.00
2022-10-10T00:30:40.209Z,100.00
2022-10-10T00:33:07.261Z,100.00
2022-10-10T00:35:34.087Z,100.00
2022-10-10T00:38:00.814Z,100.00
2022-10-10T00:40:27.838Z,100.00
2022-10-10T00:42:54.802Z,100.00
2022-10-10T00:45:29.718Z,100.00
2022-10-10T00:48:02.476Z,100.00
2022-10-10T00:50:31.029Z,100.00
2022-10-10T00:52:59.230Z,100.00
2022-10-10T00:55:26.161Z,100.00
2022-10-10T00:57:52.938Z,100.00
2022-10-10T01:00:20.248Z,100.00
2022-10-10T01:02:46.963Z,100.00
2022-10-10T01:05:13.696Z,100.00
2022-10-10T01:07:41.510Z,100.00
2022-10-10T01:10:12.600Z,100.00
2022-10-10T01:13:00.602Z,100.00
2022-10-10T01:15:48.900Z,100.00
2022-10-10T01:18:28.219Z,100.00
2022-10-10T01:20:59.533Z,100.00
2022-10-10T01:23:54.131Z,100.00
2022-10-10T01:26:38.877Z,100.00
2022-10-10T01:29:17.811Z,100.00
2022-10-10T01:31:48.643Z,100.00
2022-10-10T01:34:23.627Z,100.00
2022-10-10T01:37:03.432Z,100.00
2022-10-10T01:39:42.861Z,100.00
2022-10-10T01:42:16.987Z,100.00
2022-10-10T01:44:45.197Z,100.00
2022-10-10T01:47:12.590Z,100.00
2022-10-10T01:49:41.491Z,100.00
2022-10-10T01:52:26.544Z,100.00
2022-10-10T01:55:26.971Z,100.00
2022-10-10T01:58:14.278Z,100.00
2022-10-10T02:00:49.062Z,100.00
2022-10-10T02:03:36.098Z,100.00
2022-10-10T02:06:10.058Z,100.00
2022-10-10T02:08:43.714Z,100.00
2022-10-10T02:11:11.526Z,100.00
2022-10-10T02:13:40.802Z,100.00
2022-10-10T02:16:14.952Z,100.00
2022-10-10T02:18:45.538Z,100.00
2022-10-10T02:21:14.594Z,100.00
2022-10-10T02:23:43.541Z,100.00
2022-10-10T02:26:13.494Z,100.00
2022-10-10T02:28:43.643Z,100.00
2022-10-10T02:31:46.966Z,100.00
2022-10-10T02:34:18.358Z,100.00
2022-10-10T02:36:49.517Z,100.00
2022-10-10T02:39:18.238Z,100.00
2022-10-10T02:41:48.082Z,100.00
2022-10-10T02:44:15.143Z,100.00
2022-10-10T02:46:42.042Z,100.00
2022-10-10T02:49:09.060Z,100.00
2022-10-10T02:51:35.961Z,100.00
2022-10-10T02:54:02.859Z,100.00
2022-10-10T02:56:29.646Z,100.00
2022-10-10T02:58:58.380Z,100.00
2022-10-10T03:01:25.235Z,100.00
2022-10-10T03:03:52.008Z,100.00
2022-10-10T03:06:18.979Z,100.00
2022-10-10T03:08:45.743Z,100.00
2022-10-10T03:11:12.438Z,100.00
2022-10-10T03:13:39.312Z,100.00
2022-10-10T03:16:06.809Z,100.00
2022-10-10T03:18:33.572Z,100.00
2022-10-10T03:21:00.290Z,100.00
2022-10-10T03:23:27.035Z,100.00
2022-10-10T03:25:53.707Z,100.00
2022-10-10T03:28:21.157Z,100.00
2022-10-10T03:30:48.562Z,100.00
2022-10-10T03:33:15.609Z,100.00
2022-10-10T03:35:42.477Z,100.00
2022-10-10T03:38:12.521Z,100.00
2022-10-10T03:40:41.085Z,100.00
2022-10-10T03:43:09.504Z,100.00
2022-10-10T03:45:36.739Z,100.00
2022-10-10T03:48:04.205Z,100.00
2022-10-10T03:50:31.071Z,100.00
2022-10-10T03:52:57.886Z,100.00
2022-10-10T03:55:24.862Z,100.00
2022-10-10T03:57:51.581Z,100.00
2022-10-10T04:00:18.562Z,100.00
2022-10-10T04:02:45.376Z,100.00
2022-10-10T04:05:12.270Z,100.00
2022-10-10T04:07:41.369Z,100.00
2022-10-10T04:10:09.673Z,100.00
2022-10-10T04:12:36.524Z,100.00
2022-10-10T04:15:03.524Z,100.00
2022-10-10T04:17:30.239Z,100.00
2022-10-10T04:19:56.948Z,100.00
2022-10-10T04:22:23.637Z,100.00
2022-10-10T04:24:50.342Z,100.00
2022-10-10T04:27:17.030Z,100.00
2022-10-10T04:29:43.669Z,100.00
2022-10-10T04:32:10.409Z,100.00
2022-10-10T04:34:37.279Z,100.00
2022-10-10T04:37:04.001Z,100.00
2022-10-10T04:39:30.686Z,100.00
2022-10-10T04:41:57.432Z,100.00
2022-10-10T04:44:24.104Z,100.00
2022-10-10T04:46:50.826Z,100.00
2022-10-10T04:49:17.585Z,100.00
2022-10-10T04:51:44.308Z,100.00
2022-10-10T04:54:15.625Z,100.00
2022-10-10T04:56:42.530Z,100.00
2022-10-10T04:59:10.058Z,100.00
2022-10-10T05:01:37.156Z,100.00
2022-10-10T05:04:04.551Z,100.00
2022-10-10T05:06:32.113Z,100.00
2022-10-10T05:08:59.044Z,100.00
2022-10-10T05:11:25.837Z,100.00
2022-10-10T05:13:52.618Z,100.00
2022-10-10T05:16:19.459Z,100.00
2022-10-10T05:18:46.383Z,100.00
2022-10-10T05:21:13.081Z,100.00
2022-10-10T05:23:41.701Z,100.00
2022-10-10T05:26:09.014Z,100.00
2022-10-10T05:28:36.585Z,100.00
2022-10-10T05:31:05.404Z,100.00
2022-10-10T05:33:34.738Z,100.00
2022-10-10T05:36:07.881Z,100.00
2022-10-10T05:38:35.234Z,100.00
2022-10-10T05:41:02.229Z,100.00
2022-10-10T05:43:29.550Z,100.00
2022-10-10T05:45:56.586Z,100.00
2022-10-10T05:48:24.157Z,100.00
2022-10-10T05:51:05.549Z,100.00
2022-10-10T05:53:38.423Z,100.00
2022-10-10T05:56:05.314Z,100.00
2022-10-10T05:58:32.365Z,100.00
2022-10-10T06:01:04.961Z,100.00
2022-10-10T06:03:32.150Z,100.00
2022-10-10T06:05:59.257Z,100.00
2022-10-10T06:08:26.230Z,100.00
2022-10-10T06:10:53.698Z,100.00
2022-10-10T06:13:24.376Z,100.00
2022-10-10T06:15:52.190Z,100.00
2022-10-10T06:18:18.951Z,100.00
2022-10-10T06:20:45.678Z,100.00
2022-10-10T06:23:12.422Z,100.00
2022-10-10T06:26:00.910Z,100.00
2022-10-10T06:28:27.807Z,100.00
2022-10-10T06:30:54.677Z,100.00
2022-10-10T06:33:21.438Z,100.00
2022-10-10T06:35:49.331Z,100.00
2022-10-10T06:38:16.925Z,100.00
2022-10-10T06:40:44.570Z,100.00
2022-10-10T06:43:13.141Z,100.00
2022-10-10T06:45:42.177Z,100.00
2022-10-10T06:48:09.759Z,100.00
2022-10-10T06:50:36.551Z,100.00
2022-10-10T06:53:04.113Z,100.00
2022-10-10T06:55:31.046Z,100.00
2022-10-10T06:57:57.894Z,100.00
2022-10-10T07:00:25.177Z,100.00
2022-10-10T07:02:52.692Z,100.00
2022-10-10T07:05:19.845Z,100.00
2022-10-10T07:07:46.506Z,100.00
2022-10-10T07:10:15.566Z,100.00
2022-10-10T07:12:50.690Z,100.00
2022-10-10T07:15:17.486Z,100.00
2022-10-10T07:17:44.228Z,100.00
2022-10-10T07:20:10.952Z,100.00
2022-10-10T07:22:37.797Z,100.00
2022-10-10T07:25:05.035Z,100.00
2022-10-10T07:27:31.743Z,100.00
2022-10-10T07:29:58.520Z,100.00
2022-10-10T07:32:25.384Z,100.00
2022-10-10T07:34:52.203Z,100.00
2022-10-10T07:37:19.146Z,100.00
2022-10-10T07:39:45.942Z,100.00
2022-10-10T07:42:12.685Z,100.00
2022-10-10T07:44:39.574Z,100.00
2022-10-10T07:47:06.446Z,100.00
2022-10-10T07:49:33.837Z,100.00
2022-10-10T07:52:01.784Z,100.00
2022-10-10T07:54:29.681Z,100.00
2022-10-10T07:56:57.341Z,99.53
2022-10-10T07:59:25.214Z,98.21
2022-10-10T08:01:52.478Z,95.98
2022-10-10T08:04:19.949Z,94.78
2022-10-10T08:06:46.859Z,94.34
2022-10-10T08:09:13.632Z,93.50
2022-10-10T08:11:40.358Z,91.76
2022-10-10T08:14:07.242Z,90.65
2022-10-10T08:16:35.059Z,89.11
2022-10-10T08:19:01.983Z,87.76
2022-10-10T08:21:28.761Z,87.13
2022-10-10T08:23:56.000Z,86.76
2022-10-10T08:26:24.285Z,87.58
2022-10-10T08:28:51.290Z,88.63
2022-10-10T08:31:20.811Z,90.16
2022-10-10T08:33:49.191Z,90.96
2022-10-10T08:36:23.506Z,91.58
2022-10-10T08:38:52.694Z,89.98
2022-10-10T08:41:34.779Z,86.47
2022-10-10T08:44:07.019Z,83.98
2022-10-10T08:46:42.522Z,82.44
2022-10-10T08:49:31.651Z,80.88
2022-10-10T08:52:05.082Z,80.76
2022-10-10T08:54:34.261Z,78.27
2022-10-10T08:57:05.416Z,77.33
2022-10-10T08:59:36.746Z,76.92
2022-10-10T09:02:29.628Z,77.16
2022-10-10T09:05:00.336Z,75.87
2022-10-10T09:07:48.371Z,75.35
2022-10-10T09:10:33.997Z,76.10
2022-10-10T09:13:33.633Z,74.36
2022-10-10T09:16:19.971Z,72.86
2022-10-10T09:19:12.549Z,73.85
2022-10-10T09:21:43.741Z,73.47
2022-10-10T09:24:14.925Z,72.35
2022-10-10T09:26:56.543Z,71.48
2022-10-10T09:29:39.094Z,69.96
2022-10-10T09:32:23.022Z,71.21
2022-10-10T09:35:13.148Z,70.79
2022-10-10T09:37:48.368Z,70.24
2022-10-10T09:40:25.758Z,68.80
2022-10-10T09:42:53.194Z,69.52
2022-10-10T09:45:28.505Z,70.66
2022-10-10T09:47:55.988Z,70.58
2022-10-10T09:50:24.067Z,69.01
2022-10-10T09:52:52.489Z,70.19
2022-10-10T09:55:19.239Z,69.70
2022-10-10T09:57:49.169Z,66.83
2022-10-10T10:00:18.844Z,66.36
2022-10-10T10:03:05.104Z,68.38
2022-10-10T10:05:32.221Z,69.24
2022-10-10T10:07:58.987Z,66.92
2022-10-10T10:10:27.931Z,64.82
2022-10-10T10:12:56.466Z,67.38
2022-10-10T10:15:29.898Z,65.15
2022-10-10T10:18:21.615Z,67.64
2022-10-10T10:20:51.513Z,63.66
2022-10-10T10:23:31.250Z,63.36
2022-10-10T10:26:16.516Z,62.95
2022-10-10T10:28:44.550Z,60.01
2022-10-10T10:31:28.073Z,62.21
2022-10-10T10:34:24.710Z,63.54
2022-10-10T10:37:03.812Z,61.81
2022-10-10T10:39:52.486Z,58.72
2022-10-10T10:42:27.688Z,60.08
2022-10-10T10:45:16.495Z,55.74
2022-10-10T10:48:07.080Z,58.49
2022-10-10T10:50:49.014Z,57.50
2022-10-10T10:53:36.186Z,57.40
2022-10-10T10:56:16.359Z,53.01
2022-10-10T10:59:41.666Z,51.99
2022-10-10T11:02:11.045Z,51.41
2022-10-10T11:05:24.736Z,51.23
2022-10-10T11:08:13.038Z,47.13
2022-10-10T11:11:10.656Z,46.46
2022-10-10T11:14:04.380Z,45.02
2022-10-10T11:16:50.803Z,42.46
2022-10-10T11:19:37.151Z,40.79
2022-10-10T11:22:20.910Z,38.51
2022-10-10T11:24:58.073Z,38.87
2022-10-10T11:27:27.624Z,38.75
2022-10-10T11:30:03.287Z,39.00
2022-10-10T11:32:45.942Z,37.14
2022-10-10T11:35:23.006Z,37.22
2022-10-10T11:37:58.048Z,38.14
2022-10-10T11:40:36.258Z,37.37
2022-10-10T11:43:08.050Z,37.49
2022-10-10T11:45:39.431Z,37.34
2022-10-10T11:48:43.140Z,35.41
2022-10-10T11:51:42.124Z,35.89
2022-10-10T11:54:21.269Z,35.10
2022-10-10T11:56:51.038Z,35.82
2022-10-10T11:59:37.052Z,35.31
2022-10-10T12:02:18.796Z,35.26
2022-10-10T12:04:45.968Z,35.41
2022-10-10T12:07:36.001Z,35.46
2022-10-10T12:10:09.773Z,35.69
2022-10-10T12:12:49.920Z,35.14
2022-10-10T12:15:30.276Z,35.77
2022-10-10T12:17:57.861Z,35.40
2022-10-10T12:20:27.738Z,35.84
2022-10-10T12:23:23.380Z,34.85
2022-10-10T12:25:50.325Z,34.44
2022-10-10T12:28:17.163Z,34.42
2022-10-10T12:30:57.799Z,34.64
2022-10-10T12:33:31.253Z,34.94
2022-10-10T12:36:18.020Z,34.28
2022-10-10T12:39:15.204Z,34.11
2022-10-10T12:41:46.988Z,37.08
2022-10-10T12:44:26.231Z,36.39
2022-10-10T12:47:14.813Z,34.48
2022-10-10T12:49:51.364Z,33.99
2022-10-10T12:52:27.523Z,33.43
2022-10-10T12:55:06.339Z,33.61
2022-10-10T12:57:40.918Z,33.12
2022-10-10T13:00:20.498Z,33.60
2022-10-10T13:02:55.197Z,34.24
2022-10-10T13:05:28.622Z,34.19
2022-10-10T13:08:00.598Z,34.16
2022-10-10T13:10:29.574Z,34.27
2022-10-10T13:13:01.413Z,34.58
2022-10-10T13:15:29.784Z,34.50
2022-10-10T13:17:56.552Z,34.49
2022-10-10T13:20:32.428Z,35.36
2022-10-10T13:23:04.439Z,35.98
2022-10-10T13:25:33.279Z,36.62
2022-10-10T13:28:00.361Z,37.05
2022-10-10T13:30:27.195Z,37.90
2022-10-10T13:32:56.180Z,38.71
2022-10-10T13:35:27.018Z,39.33
2022-10-10T13:37:59.480Z,39.65
2022-10-10T13:40:27.990Z,39.83
2022-10-10T13:42:55.364Z,39.93
2022-10-10T13:45:30.096Z,39.71
2022-10-10T13:48:10.898Z,39.85
2022-10-10T13:50:43.868Z,39.89
2022-10-10T13:53:29.501Z,40.38
2022-10-10T13:56:02.284Z,40.80
2022-10-10T13:58:55.516Z,40.79
2022-10-10T14:01:30.357Z,41.08
2022-10-10T14:04:06.881Z,40.75
2022-10-10T14:06:34.605Z,41.17
2022-10-10T14:09:24.530Z,42.71
2022-10-10T14:11:54.931Z,43.85
2022-10-10T14:14:31.773Z,44.76
2022-10-10T14:17:04.148Z,45.18
2022-10-10T14:19:32.977Z,46.12
2022-10-10T14:22:00.074Z,47.11
2022-10-10T14:24:31.466Z,47.71
2022-10-10T14:27:05.397Z,47.83
2022-10-10T14:29:32.525Z,47.67
2022-10-10T14:31:59.556Z,47.77
2022-10-10T14:34:26.511Z,48.59
2022-10-10T14:36:53.377Z,48.62
2022-10-10T14:39:20.159Z,48.93
2022-10-10T14:41:53.390Z,49.34
2022-10-10T14:44:20.876Z,49.63
2022-10-10T14:46:48.001Z,49.46
2022-10-10T14:49:20.990Z,49.69
2022-10-10T14:51:48.149Z,49.93
2022-10-10T14:54:15.706Z,50.16
2022-10-10T14:57:09.305Z,50.78
2022-10-10T14:59:47.522Z,51.23
2022-10-10T15:02:15.977Z,51.41
2022-10-10T15:04:43.084Z,51.88
2022-10-10T15:07:14.464Z,51.80
2022-10-10T15:10:02.677Z,52.02
2022-10-10T15:12:31.593Z,52.24
2022-10-10T15:14:58.648Z,52.41
2022-10-10T15:17:26.941Z,52.58
2022-10-10T15:19:53.816Z,53.93
2022-10-10T15:22:20.626Z,54.10
2022-10-10T15:24:47.347Z,54.10
2022-10-10T15:27:14.198Z,53.96
2022-10-10T15:29:41.052Z,54.42
2022-10-10T15:32:07.838Z,54.88
2022-10-10T15:34:35.419Z,55.42
2022-10-10T15:37:02.615Z,55.56
2022-10-10T15:39:30.884Z,55.88
2022-10-10T15:42:10.921Z,57.00
2022-10-10T15:44:47.476Z,57.29
2022-10-10T15:47:15.993Z,57.45
2022-10-10T15:49:43.128Z,57.53
2022-10-10T15:52:10.092Z,58.06
2022-10-10T15:54:36.802Z,58.58
2022-10-10T15:57:03.698Z,59.69
2022-10-10T15:59:30.563Z,60.05
2022-10-10T16:01:57.315Z,61.68
2022-10-10T16:04:25.175Z,62.75
2022-10-10T16:06:54.542Z,65.05
2022-10-10T16:09:33.388Z,68.40
2022-10-10T16:12:00.609Z,69.30
2022-10-10T16:14:28.239Z,70.39
2022-10-10T16:16:59.313Z,71.58
2022-10-10T16:19:26.012Z,72.15
2022-10-10T16:21:52.876Z,73.07
2022-10-10T16:24:19.598Z,73.68
2022-10-10T16:26:46.312Z,74.61
2022-10-10T16:29:18.505Z,75.50
2022-10-10T16:31:48.649Z,76.12
2022-10-10T16:34:24.769Z,76.87
2022-10-10T16:36:51.555Z,77.73
2022-10-10T16:39:18.377Z,78.27
2022-10-10T16:41:49.194Z,80.22
2022-10-10T16:44:19.748Z,83.19
2022-10-10T16:46:51.966Z,85.26
2022-10-10T16:49:20.764Z,85.31
2022-10-10T16:51:47.458Z,83.40
2022-10-10T16:54:14.235Z,84.41
2022-10-10T16:56:41.840Z,85.23
2022-10-10T16:59:12.885Z,86.40
2022-10-10T17:01:40.174Z,87.28
2022-10-10T17:04:06.999Z,88.44
2022-10-10T17:06:37.481Z,89.08
2022-10-10T17:09:11.458Z,90.87
2022-10-10T17:11:38.286Z,92.13
2022-10-10T17:14:05.070Z,91.92
2022-10-10T17:19:18.693Z,90.79
2022-10-10T17:21:47.894Z,91.23
2022-10-10T17:24:16.401Z,91.48
2022-10-10T17:26:46.517Z,91.14
2022-10-10T17:29:21.217Z,91.90
2022-10-10T17:31:48.117Z,92.02
2022-10-10T17:34:15.608Z,93.21
2022-10-10T17:36:57.193Z,93.90
2022-10-10T17:39:24.290Z,95.69
2022-10-10T17:41:53.719Z,100.00
2022-10-10T17:44:20.812Z,100.00
2022-10-10T17:46:47.774Z,100.00
2022-10-10T17:49:17.384Z,100.00
2022-10-10T17:51:44.630Z,100.00
2022-10-10T17:54:13.462Z,100.00
2022-10-10T17:56:40.721Z,100.00
2022-10-10T17:59:08.160Z,100.00
2022-10-10T18:01:35.723Z,100.00
2022-10-10T18:04:03.483Z,100.00
2022-10-10T18:06:31.394Z,100.00
2022-10-10T18:08:59.316Z,100.00
2022-10-10T18:11:29.287Z,100.00
2022-10-10T18:14:00.180Z,100.00
2022-10-10T18:16:31.078Z,100.00
2022-10-10T18:18:58.356Z,100.00
2022-10-10T18:21:25.455Z,100.00
2022-10-10T18:23:52.475Z,100.00
2022-10-10T18:26:21.961Z,100.00
2022-10-10T18:28:54.520Z,100.00
2022-10-10T18:31:24.450Z,100.00
2022-10-10T18:33:51.763Z,100.00
2022-10-10T18:36:21.389Z,100.00
2022-10-10T18:38:48.300Z,100.00
2022-10-10T18:41:23.602Z,100.00
2022-10-10T18:43:51.600Z,100.00
2022-10-10T18:46:20.572Z,100.00
2022-10-10T18:48:54.050Z,100.00
2022-10-10T18:51:31.557Z,100.00
2022-10-10T18:54:07.997Z,100.00
2022-10-10T18:56:37.802Z,100.00
2022-10-10T18:59:23.681Z,100.00
2022-10-10T19:01:52.282Z,100.00
2022-10-10T19:04:24.099Z,100.00
2022-10-10T19:06:57.599Z,100.00
2022-10-10T19:09:25.163Z,100.00
2022-10-10T19:11:58.391Z,100.00
2022-10-10T19:14:40.231Z,100.00
2022-10-10T19:17:17.486Z,100.00
2022-10-10T19:21:26.016Z,100.00
2022-10-10T19:23:46.735Z,100.00
2022-10-10T19:26:18.695Z,100.00
2022-10-10T19:28:45.745Z,100.00
2022-10-10T19:31:50.118Z,100.00
2022-10-10T19:34:24.246Z,100.00
2022-10-10T19:36:54.772Z,100.00
2022-10-10T19:39:25.732Z,100.00
2022-10-10T19:45:21.418Z,100.00
2022-10-10T19:48:20.097Z,100.00
2022-10-10T19:51:12.559Z,100.00
2022-10-10T19:54:29.886Z,100.00
2022-10-10T20:00:07.130Z,100.00
2022-10-10T20:02:34.425Z,100.00
2022-10-10T20:05:18.364Z,100.00
2022-10-10T20:07:51.951Z,100.00
2022-10-10T20:10:21.998Z,100.00
2022-10-10T20:12:51.814Z,100.00
2022-10-10T20:15:26.475Z,100.00
2022-10-10T20:17:55.319Z,100.00
2022-10-10T20:20:25.209Z,100.00
2022-10-10T20:22:58.094Z,100.00
2022-10-10T20:25:32.391Z,100.00
2022-10-10T20:27:59.146Z,100.00
2022-10-10T20:30:30.807Z,100.00
2022-10-10T20:32:57.631Z,100.00
2022-10-10T20:35:30.155Z,100.00
2022-10-10T20:38:10.806Z,100.00
2022-10-10T20:40:42.542Z,100.00
2022-10-10T20:43:10.965Z,100.00
2022-10-10T20:45:39.339Z,100.00
2022-10-10T20:48:07.858Z,100.00
2022-10-10T20:50:38.559Z,100.00
2022-10-10T20:53:06.580Z,100.00
2022-10-10T20:55:33.744Z,100.00
2022-10-10T20:58:01.745Z,100.00
2022-10-10T21:00:31.532Z,100.00
2022-10-10T21:03:01.161Z,100.00
2022-10-10T21:05:27.918Z,100.00
2022-10-10T21:07:54.744Z,100.00
2022-10-10T21:10:21.669Z,100.00
2022-10-10T21:12:48.425Z,100.00
2022-10-10T21:15:15.150Z,100.00
2022-10-10T21:17:43.016Z,100.00
2022-10-10T21:20:10.126Z,100.00
2022-10-10T21:22:36.915Z,100.00
2022-10-10T21:25:04.017Z,100.00
2022-10-10T21:27:32.016Z,100.00
2022-10-10T21:29:59.947Z,100.00
2022-10-10T21:32:28.241Z,100.00
2022-10-10T21:34:56.514Z,100.00
2022-10-10T21:37:23.663Z,100.00
2022-10-10T21:39:50.382Z,100.00
2022-10-10T21:42:17.124Z,100.00
2022-10-10T21:44:43.893Z,100.00
2022-10-10T21:47:10.568Z,100.00
2022-10-10T21:49:37.396Z,100.00
2022-10-10T21:52:04.285Z,100.00
2022-10-10T21:54:38.359Z,100.00
2022-10-10T21:57:05.283Z,100.00
2022-10-10T21:59:32.509Z,100.00
2022-10-10T22:01:59.402Z,100.00
2022-10-10T22:04:29.092Z,100.00
2022-10-10T22:06:56.288Z,100.00
2022-10-10T22:09:23.055Z,100.00
2022-10-10T22:11:49.851Z,100.00
2022-10-10T22:14:16.707Z,100.00
2022-10-10T22:16:43.375Z,100.00
2022-10-10T22:19:10.198Z,100.00
2022-10-10T22:21:37.024Z,100.00
2022-10-10T22:24:07.015Z,100.00
2022-10-10T22:26:35.099Z,100.00
2022-10-10T22:29:02.203Z,100.00
2022-10-10T22:31:32.263Z,100.00
2022-10-10T22:34:01.905Z,100.00
2022-10-10T22:36:28.646Z,100.00
2022-10-10T22:38:55.671Z,100.00
2022-10-10T22:41:22.574Z,100.00
2022-10-10T22:43:49.943Z,100.00
2022-10-10T22:46:16.806Z,100.00
2022-10-10T22:48:43.696Z,100.00
2022-10-10T22:51:18.126Z,100.00
2022-10-10T22:53:46.989Z,100.00
2022-10-10T22:56:16.942Z,100.00
2022-10-10T22:58:43.633Z,100.00
2022-10-10T23:01:15.391Z,100.00
2022-10-10T23:03:42.718Z,100.00
2022-10-10T23:06:09.803Z,100.00
2022-10-10T23:08:36.651Z,100.00
2022-10-10T23:11:03.653Z,100.00
2022-10-10T23:13:30.772Z,100.00
2022-10-10T23:15:57.719Z,100.00
2022-10-10T23:18:24.593Z,100.00
2022-10-10T23:20:51.359Z,100.00
2022-10-10T23:23:18.476Z,100.00
2022-10-10T23:25:47.533Z,100.00
2022-10-10T23:28:15.759Z,100.00
2022-10-10T23:30:44.448Z,100.00
2022-10-10T23:33:12.473Z,100.00
2022-10-10T23:35:39.236Z,100.00
2022-10-10T23:38:06.392Z,100.00
2022-10-10T23:40:33.852Z,100.00
2022-10-10T23:43:00.692Z,100.00
2022-10-10T23:45:27.598Z,100.00
2022-10-10T23:47:57.242Z,100.00
2022-10-10T23:50:24.027Z,100.00
2022-10-10T23:52:50.764Z,100.00
2022-10-10T23:55:17.542Z,100.00
2022-10-10T23:57:44.318Z,100.00
